createdAt,value
2019-01-23T00:01:14.186Z,48.60
2019-01-23T00:03:43.072Z,55.03
2019-01-23T00:06:11.960Z,58.03
2019-01-23T00:08:41.852Z,53.30
2019-01-23T00:11:13.428Z,56.40
2019-01-23T00:13:42.318Z,56.23
2019-01-23T00:16:11.106Z,51.87
2019-01-23T00:18:39.988Z,53.30
2019-01-23T00:21:08.995Z,62.13
2019-01-23T00:23:40.477Z,55.50
2019-01-23T00:26:09.370Z,59.53
2019-01-23T00:28:42.337Z,61.97
2019-01-23T00:31:08.856Z,56.20
2019-01-23T00:33:37.742Z,63.30
2019-01-23T00:36:06.632Z,63.77
2019-01-23T00:38:35.951Z,52.83
2019-01-23T00:41:04.823Z,55.73
2019-01-23T00:43:37.796Z,49.97
2019-01-23T00:46:06.907Z,54.23
2019-01-23T00:48:36.820Z,60.03
2019-01-23T00:51:05.840Z,55.53
2019-01-23T00:53:37.036Z,55.67
2019-01-23T00:56:07.284Z,55.10
2019-01-23T00:58:36.172Z,54.23
2019-01-23T01:01:06.270Z,59.17
2019-01-23T01:03:35.181Z,54.10
2019-01-23T01:06:04.282Z,54.80
2019-01-23T01:08:33.393Z,55.03
2019-01-23T01:11:02.881Z,54.97
2019-01-23T01:13:37.913Z,56.90
2019-01-23T01:16:06.915Z,49.90
2019-01-23T01:18:40.123Z,50.97
2019-01-23T01:21:08.974Z,52.50
2019-01-23T01:23:37.774Z,59.07
2019-01-23T01:26:06.540Z,56.73
2019-01-23T01:28:35.558Z,53.20
2019-01-23T01:31:04.377Z,51.77
2019-01-23T01:33:34.092Z,54.57
2019-01-23T01:36:03.259Z,59.80
2019-01-23T01:38:32.452Z,59.90
2019-01-23T01:41:01.221Z,55.07
2019-01-23T01:43:30.025Z,54.53
2019-01-23T01:46:01.989Z,53.70
2019-01-23T01:48:30.880Z,64.47
2019-01-23T01:51:00.065Z,64.47
2019-01-23T01:53:30.299Z,57.37
2019-01-23T01:56:03.287Z,55.23
2019-01-23T01:58:35.248Z,61.53
2019-01-23T02:01:07.005Z,63.03
2019-01-23T02:03:37.331Z,57.70
2019-01-23T02:06:07.952Z,56.03
2019-01-23T02:08:36.714Z,55.70
2019-01-23T02:11:06.540Z,56.80
2019-01-23T02:13:35.428Z,56.57
2019-01-23T02:16:10.870Z,62.33
2019-01-23T02:18:41.038Z,60.30
2019-01-23T02:21:12.958Z,65.83
2019-01-23T02:23:41.970Z,63.57
2019-01-23T02:26:10.756Z,66.83
2019-01-23T02:28:39.444Z,64.07
2019-01-23T02:31:11.380Z,59.43
2019-01-23T02:33:40.070Z,58.77
2019-01-23T02:36:08.966Z,58.23
2019-01-23T02:38:37.674Z,60.57
2019-01-23T02:41:06.558Z,57.87
2019-01-23T02:43:36.267Z,65.67
2019-01-23T02:46:05.366Z,62.80
2019-01-23T02:48:37.326Z,60.70
2019-01-23T02:51:06.194Z,60.43
2019-01-23T02:53:35.224Z,59.70
2019-01-23T02:56:04.204Z,64.53
2019-01-23T02:58:33.091Z,60.73
2019-01-23T03:01:01.859Z,56.43
2019-01-23T03:03:30.875Z,53.27
2019-01-23T03:05:59.638Z,54.80
2019-01-23T03:08:31.403Z,62.23
2019-01-23T03:11:04.407Z,61.10
2019-01-23T03:13:39.136Z,56.97
2019-01-23T03:16:08.029Z,64.30
2019-01-23T03:18:36.787Z,55.93
2019-01-23T03:21:05.599Z,55.63
2019-01-23T03:23:34.679Z,54.20
2019-01-23T03:26:03.483Z,48.07
2019-01-23T03:28:32.275Z,57.97
2019-01-23T03:31:01.039Z,61.97
2019-01-23T03:33:29.848Z,59.47
2019-01-23T03:35:58.740Z,61.70
2019-01-23T03:38:27.732Z,54.50
2019-01-23T03:40:56.626Z,54.50
2019-01-23T03:43:25.521Z,53.67
2019-01-23T03:45:54.509Z,51.20
2019-01-23T03:48:23.600Z,59.07
2019-01-23T03:50:52.367Z,59.43
2019-01-23T03:53:21.073Z,49.60
2019-01-23T03:55:50.756Z,54.20
2019-01-23T03:58:19.545Z,51.40
2019-01-23T04:00:50.245Z,53.50
2019-01-23T04:03:19.196Z,52.97
2019-01-23T04:05:49.500Z,64.53
2019-01-23T04:08:21.076Z,53.83
2019-01-23T04:10:49.740Z,50.13
2019-01-23T04:13:18.626Z,53.17
2019-01-23T04:15:47.357Z,45.83
2019-01-23T04:18:18.216Z,47.67
2019-01-23T04:20:46.961Z,56.67
2019-01-23T04:23:15.630Z,54.43
2019-01-23T04:25:45.958Z,50.63
2019-01-23T04:28:16.327Z,51.40
2019-01-23T04:30:45.110Z,52.67
2019-01-23T04:33:13.874Z,48.90
2019-01-23T04:35:42.548Z,45.23
2019-01-23T04:38:11.472Z,50.07
2019-01-23T04:40:40.232Z,47.00
2019-01-23T04:43:09.010Z,49.13
2019-01-23T04:45:37.809Z,47.27
2019-01-23T04:48:06.700Z,50.13
2019-01-23T04:50:37.024Z,50.70
2019-01-23T04:53:13.288Z,47.10
2019-01-23T04:55:42.182Z,44.70
2019-01-23T04:58:11.684Z,52.27
2019-01-23T05:00:40.982Z,51.63
2019-01-23T05:03:09.872Z,44.70
2019-01-23T05:05:38.641Z,48.03
2019-01-23T05:08:07.300Z,49.13
2019-01-23T05:10:36.545Z,42.33
2019-01-23T05:13:05.436Z,50.33
2019-01-23T05:15:34.538Z,50.63
2019-01-23T05:18:04.958Z,55.40
2019-01-23T05:20:33.751Z,52.70
2019-01-23T05:23:02.569Z,51.67
2019-01-23T05:25:31.416Z,54.57
2019-01-23T05:28:00.315Z,46.83
2019-01-23T05:30:29.097Z,49.73
2019-01-23T05:32:59.123Z,61.73
2019-01-23T05:35:27.893Z,49.67
2019-01-23T05:37:56.694Z,53.70
2019-01-23T05:40:25.588Z,52.87
2019-01-23T05:42:54.481Z,49.00
2019-01-23T05:45:23.379Z,50.50
2019-01-23T05:47:51.999Z,53.70
2019-01-23T05:50:20.825Z,52.23
2019-01-23T05:52:49.638Z,48.00
2019-01-23T05:55:18.520Z,57.00
2019-01-23T05:57:48.976Z,54.13
2019-01-23T06:00:20.397Z,53.47
2019-01-23T06:02:51.018Z,50.90
2019-01-23T06:05:21.179Z,47.50
2019-01-23T06:07:51.519Z,48.07
2019-01-23T06:10:20.368Z,45.70
2019-01-23T06:12:49.665Z,53.97
2019-01-23T06:15:18.663Z,46.57
2019-01-23T06:17:47.546Z,50.67
2019-01-23T06:20:18.814Z,51.43
2019-01-23T06:22:47.672Z,49.17
2019-01-23T06:27:53.742Z,46.00
2019-01-23T06:30:26.656Z,50.53
2019-01-23T06:32:55.420Z,45.63
2019-01-23T06:35:24.305Z,50.70
2019-01-23T06:37:53.089Z,49.30
2019-01-23T06:40:21.884Z,53.20
2019-01-23T06:42:50.603Z,49.47
2019-01-23T06:45:20.089Z,48.97
2019-01-23T06:47:49.540Z,47.90
2019-01-23T06:50:20.716Z,48.47
2019-01-23T06:52:51.573Z,50.87
2019-01-23T06:55:20.408Z,45.70
2019-01-23T06:57:49.358Z,44.43
2019-01-23T07:00:23.461Z,46.80
2019-01-23T07:02:53.790Z,45.17
2019-01-23T07:05:23.096Z,47.50
2019-01-23T07:07:51.983Z,52.00
2019-01-23T07:10:24.970Z,46.40
2019-01-23T07:12:53.864Z,52.77
2019-01-23T07:15:22.852Z,46.23
2019-01-23T07:17:51.825Z,47.37
2019-01-23T07:20:22.784Z,47.93
2019-01-23T07:22:51.675Z,43.03
2019-01-23T07:25:21.387Z,48.63
2019-01-23T07:27:51.400Z,41.80
2019-01-23T07:30:25.934Z,48.80
2019-01-23T07:32:55.021Z,49.00
2019-01-23T07:35:23.920Z,51.17
2019-01-23T07:37:53.283Z,46.87
2019-01-23T07:40:21.985Z,47.93
2019-01-23T07:42:54.987Z,47.33
2019-01-23T07:45:26.540Z,43.30
2019-01-23T07:47:55.287Z,45.37
2019-01-23T07:50:24.095Z,49.80
2019-01-23T07:52:53.665Z,42.20
2019-01-23T07:55:28.663Z,44.07
2019-01-23T07:57:57.679Z,43.97
2019-01-23T08:00:31.306Z,52.90
2019-01-23T08:03:01.387Z,45.53
2019-01-23T08:05:31.972Z,51.57
2019-01-23T08:08:01.299Z,51.33
2019-01-23T08:10:30.401Z,49.77
2019-01-23T08:12:59.491Z,51.00
2019-01-23T08:15:31.043Z,48.53
2019-01-23T08:17:59.937Z,56.03
2019-01-23T08:20:31.459Z,60.83
2019-01-23T08:23:00.183Z,42.57
2019-01-23T08:25:28.972Z,45.93
2019-01-23T08:28:02.705Z,46.27
2019-01-23T08:30:38.443Z,49.07
2019-01-23T08:33:02.494Z,49.53
2019-01-23T08:35:31.259Z,50.63
2019-01-23T08:38:01.582Z,50.27
2019-01-23T08:40:30.483Z,53.47
2019-01-23T08:42:59.896Z,52.40
2019-01-23T08:45:29.812Z,50.90
2019-01-23T08:47:58.582Z,54.37
2019-01-23T08:50:38.610Z,51.63
2019-01-23T08:53:07.704Z,54.80
2019-01-23T08:55:36.465Z,52.70
2019-01-23T08:58:05.741Z,56.10
2019-01-23T09:00:34.932Z,55.33
2019-01-23T09:03:07.410Z,57.53
2019-01-23T09:05:37.723Z,57.43
2019-01-23T09:08:07.911Z,56.60
2019-01-23T09:10:38.456Z,49.27
2019-01-23T09:13:07.276Z,49.30
2019-01-23T09:15:43.574Z,60.53
2019-01-23T09:18:12.433Z,53.97
2019-01-23T09:20:43.058Z,50.77
2019-01-23T09:23:13.827Z,64.10
2019-01-23T09:25:49.725Z,60.73
2019-01-23T09:28:16.276Z,57.47
2019-01-23T09:30:52.588Z,57.93
2019-01-23T09:33:36.119Z,52.50
2019-01-23T09:36:23.074Z,52.53
2019-01-23T09:39:16.971Z,56.60
2019-01-23T09:42:05.421Z,50.87
2019-01-23T09:44:59.539Z,63.07
2019-01-23T09:47:48.931Z,52.57
2019-01-23T09:50:35.533Z,67.37
2019-01-23T09:53:07.335Z,45.77
2019-01-23T09:55:36.842Z,58.03
2019-01-23T09:58:07.987Z,60.53
2019-01-23T10:00:36.781Z,65.00
2019-01-23T10:03:06.269Z,63.43
2019-01-23T10:05:35.272Z,56.57
2019-01-23T10:08:07.321Z,61.57
2019-01-23T10:10:36.332Z,55.50
2019-01-23T10:13:08.399Z,61.60
2019-01-23T10:15:43.320Z,65.30
2019-01-23T10:18:16.660Z,69.80
2019-01-23T10:20:45.591Z,62.03
2019-01-23T10:23:15.472Z,59.47
2019-01-23T10:25:44.724Z,59.53
2019-01-23T10:28:13.739Z,63.13
2019-01-23T10:30:42.579Z,58.47
2019-01-23T10:33:13.662Z,59.00
2019-01-23T10:35:45.096Z,70.30
2019-01-23T10:38:13.869Z,59.47
2019-01-23T10:40:43.175Z,62.50
2019-01-23T10:43:11.979Z,54.37
2019-01-23T10:45:41.869Z,56.23
2019-01-23T10:48:10.670Z,62.37
2019-01-23T10:50:39.544Z,59.43
2019-01-23T10:53:10.560Z,56.43
2019-01-23T10:55:39.277Z,61.67
2019-01-23T10:58:12.000Z,56.73
2019-01-23T11:00:40.919Z,50.43
2019-01-23T11:03:12.198Z,56.33
2019-01-23T11:05:40.977Z,54.83
2019-01-23T11:08:14.898Z,60.90
2019-01-23T11:10:43.825Z,55.90
2019-01-23T11:13:14.926Z,56.70
2019-01-23T11:15:46.964Z,56.10
2019-01-23T11:18:15.593Z,48.80
2019-01-23T11:20:44.486Z,52.87
2019-01-23T11:23:13.786Z,51.03
2019-01-23T11:25:42.566Z,57.43
2019-01-23T11:28:12.872Z,55.93
2019-01-23T11:30:45.784Z,56.00
2019-01-23T11:33:14.590Z,47.33
2019-01-23T11:35:43.361Z,48.10
2019-01-23T11:38:15.247Z,50.33
2019-01-23T11:40:47.377Z,55.83
2019-01-23T11:43:19.143Z,53.83
2019-01-23T11:45:48.397Z,51.07
2019-01-23T11:48:17.440Z,46.47
2019-01-23T11:50:46.220Z,49.67
2019-01-23T11:53:15.117Z,54.07
2019-01-23T11:55:44.183Z,49.53
2019-01-23T11:58:14.537Z,45.80
2019-01-23T12:00:48.344Z,46.87
2019-01-23T12:03:20.888Z,47.37
2019-01-23T12:05:47.513Z,48.50
2019-01-23T12:08:16.518Z,47.80
2019-01-23T12:10:47.931Z,42.70
2019-01-23T12:13:16.784Z,48.90
2019-01-23T12:15:48.569Z,45.63
2019-01-23T12:18:17.487Z,46.60
2019-01-23T12:20:46.281Z,43.77
2019-01-23T12:23:15.103Z,50.07
2019-01-23T12:25:45.390Z,45.40
2019-01-23T12:28:14.338Z,51.13
2019-01-23T12:30:46.673Z,46.80
2019-01-23T12:33:18.403Z,46.47
2019-01-23T12:35:47.189Z,42.47
2019-01-23T12:38:16.961Z,47.60
2019-01-23T12:40:48.764Z,46.93
2019-01-23T12:43:17.311Z,39.97
2019-01-23T12:45:46.123Z,43.10
2019-01-23T12:48:15.858Z,48.03
2019-01-23T12:50:44.787Z,44.20
2019-01-23T12:53:16.954Z,42.93
2019-01-23T12:55:50.157Z,50.37
2019-01-23T12:58:19.251Z,47.03
2019-01-23T13:00:53.806Z,50.03
2019-01-23T13:03:22.636Z,50.17
2019-01-23T13:05:52.960Z,45.97
2019-01-23T13:08:21.791Z,52.23
2019-01-23T13:10:51.553Z,50.47
2019-01-23T13:13:20.460Z,57.27
2019-01-23T13:15:49.573Z,52.43
2019-01-23T13:18:19.772Z,48.93
2019-01-23T13:20:48.656Z,54.37
2019-01-23T13:23:19.830Z,49.30
2019-01-23T13:25:47.986Z,48.70
2019-01-23T13:28:16.720Z,46.07
2019-01-23T13:33:24.176Z,56.33
2019-01-23T13:35:52.942Z,51.97
2019-01-23T13:38:24.411Z,57.37
2019-01-23T13:40:58.033Z,53.17
2019-01-23T13:43:26.904Z,51.03
2019-01-23T13:45:55.923Z,53.60
2019-01-23T13:48:25.530Z,43.67
2019-01-23T13:50:54.299Z,52.27
2019-01-23T13:53:23.094Z,52.27
2019-01-23T13:55:52.334Z,55.43
2019-01-23T13:58:21.308Z,52.40
2019-01-23T14:00:52.012Z,61.27
2019-01-23T14:03:26.535Z,52.60
2019-01-23T14:05:55.518Z,51.93
2019-01-23T14:08:24.333Z,57.43
2019-01-23T14:10:54.703Z,54.43
2019-01-23T14:13:23.476Z,56.00
2019-01-23T14:15:52.459Z,57.77
2019-01-23T14:18:21.299Z,58.00
2019-01-23T14:20:50.094Z,55.90
2019-01-23T14:23:20.752Z,55.33
2019-01-23T14:25:50.283Z,51.80
2019-01-23T14:28:18.965Z,59.13
2019-01-23T14:30:48.891Z,59.37
2019-01-23T14:33:17.816Z,53.17
2019-01-23T14:35:46.501Z,56.73
2019-01-23T14:38:17.659Z,52.13
2019-01-23T14:40:46.560Z,61.47
2019-01-23T14:43:15.810Z,54.53
2019-01-23T14:45:44.777Z,54.20
2019-01-23T14:48:15.293Z,52.87
2019-01-23T14:50:48.813Z,57.23
2019-01-23T14:53:18.163Z,53.60
2019-01-23T14:55:46.973Z,63.40
2019-01-23T14:58:15.849Z,64.03
2019-01-23T15:00:45.684Z,51.37
2019-01-23T15:03:20.383Z,55.27
2019-01-23T15:05:54.665Z,52.67
2019-01-23T15:08:24.734Z,59.30
2019-01-23T15:10:56.173Z,61.43
2019-01-23T15:13:29.170Z,61.87
2019-01-23T15:15:59.391Z,62.27
2019-01-23T15:18:28.368Z,60.97
2019-01-23T15:20:58.309Z,55.67
2019-01-23T15:23:27.190Z,53.97
2019-01-23T15:25:57.419Z,56.83
2019-01-23T15:28:26.385Z,54.03
2019-01-23T15:30:55.627Z,52.57
2019-01-23T15:33:28.903Z,55.57
2019-01-23T15:35:57.897Z,56.23
2019-01-23T15:38:31.055Z,51.83
2019-01-23T15:41:01.451Z,51.43
2019-01-23T15:43:30.597Z,47.67
2019-01-23T15:45:59.491Z,50.83
2019-01-23T15:48:28.267Z,48.77
2019-01-23T15:50:57.397Z,54.47
2019-01-23T15:53:26.269Z,48.93
2019-01-23T15:55:55.342Z,52.03
2019-01-23T15:58:24.458Z,49.00
2019-01-23T16:00:55.748Z,57.13
2019-01-23T16:03:24.534Z,65.43
2019-01-23T16:05:53.288Z,59.23
2019-01-23T16:08:25.765Z,58.00
2019-01-23T16:10:57.034Z,66.00
2019-01-23T16:13:27.101Z,59.23
2019-01-23T16:15:55.884Z,61.33
2019-01-23T16:18:27.773Z,67.50
2019-01-23T16:20:56.566Z,72.70
2019-01-23T16:23:33.131Z,66.37
2019-01-23T16:26:02.287Z,72.30
2019-01-23T16:28:31.199Z,68.90
2019-01-23T16:30:59.980Z,62.63
2019-01-23T16:33:28.954Z,71.70
2019-01-23T16:35:58.907Z,68.73
2019-01-23T16:38:27.748Z,65.17
2019-01-23T16:40:56.469Z,63.40
2019-01-23T16:43:25.244Z,73.30
2019-01-23T16:45:55.908Z,58.77
2019-01-23T16:48:30.173Z,59.53
2019-01-23T16:51:00.120Z,53.97
2019-01-23T16:53:29.131Z,57.67
2019-01-23T16:56:01.093Z,51.90
2019-01-23T16:58:29.797Z,55.30
2019-01-23T17:00:59.013Z,57.47
2019-01-23T17:03:28.380Z,56.00
2019-01-23T17:05:58.685Z,60.03
2019-01-23T17:08:40.265Z,55.80
2019-01-23T17:11:09.287Z,51.60
2019-01-23T17:13:41.255Z,56.83
2019-01-23T17:16:10.048Z,61.40
2019-01-23T17:18:40.881Z,55.80
2019-01-23T17:21:09.437Z,57.30
2019-01-23T17:23:38.336Z,53.40
2019-01-23T17:26:07.547Z,59.57
2019-01-23T17:28:36.440Z,54.23
2019-01-23T17:31:12.631Z,60.67
2019-01-23T17:33:47.377Z,56.73
2019-01-23T17:36:19.284Z,59.60
2019-01-23T17:38:47.968Z,60.10
2019-01-23T17:41:18.574Z,62.40
2019-01-23T17:43:50.021Z,66.67
2019-01-23T17:46:20.582Z,67.00
2019-01-23T17:48:50.604Z,68.30
2019-01-23T17:51:19.867Z,68.33
2019-01-23T17:53:49.594Z,62.40
2019-01-23T17:56:20.300Z,63.70
2019-01-23T17:58:53.012Z,74.70
2019-01-23T18:01:24.176Z,84.43
2019-01-23T18:03:53.366Z,72.67
2019-01-23T18:06:26.410Z,84.20
2019-01-23T18:08:55.232Z,83.43
2019-01-23T18:11:27.000Z,89.83
2019-01-23T18:14:00.128Z,91.17
2019-01-23T18:16:32.927Z,93.90
2019-01-23T18:19:01.434Z,94.07
2019-01-23T18:21:31.326Z,98.73
2019-01-23T18:24:12.241Z,91.17
2019-01-23T18:26:46.261Z,87.73
2019-01-23T18:29:15.661Z,91.30
2019-01-23T18:31:47.655Z,99.50
2019-01-23T18:34:30.220Z,99.83
2019-01-23T18:37:20.216Z,89.97
2019-01-23T18:40:18.084Z,91.37
2019-01-23T18:43:28.554Z,101.13
2019-01-23T18:46:48.642Z,96.67
2019-01-23T18:49:40.265Z,105.10
2019-01-23T18:52:14.275Z,107.43
2019-01-23T18:54:45.241Z,99.73
2019-01-23T18:57:31.304Z,112.23
2019-01-23T19:00:04.772Z,101.73
2019-01-23T19:02:38.923Z,116.77
2019-01-23T19:05:18.626Z,114.60
2019-01-23T19:07:49.123Z,120.60
2019-01-23T19:10:19.154Z,109.07
2019-01-23T19:12:49.815Z,104.07
2019-01-23T19:15:20.297Z,93.43
2019-01-23T19:17:49.568Z,110.57
2019-01-23T19:20:23.787Z,107.13
2019-01-23T19:22:52.625Z,124.07
2019-01-23T19:25:21.564Z,120.13
2019-01-23T19:27:54.738Z,110.47
2019-01-23T19:30:24.163Z,110.83
2019-01-23T19:32:56.741Z,110.83
2019-01-23T19:35:27.673Z,107.83
2019-01-23T19:37:57.799Z,122.67
2019-01-23T19:40:27.797Z,122.73
2019-01-23T19:42:56.700Z,123.60
2019-01-23T19:45:25.479Z,116.97
2019-01-23T19:47:56.865Z,113.43
2019-01-23T19:50:30.750Z,105.43
2019-01-23T19:52:59.635Z,105.97
2019-01-23T19:55:28.629Z,99.47
2019-01-23T19:57:57.313Z,106.00
2019-01-23T20:00:31.015Z,112.60
2019-01-23T20:02:59.812Z,105.40
2019-01-23T20:05:28.979Z,98.33
2019-01-23T20:07:58.308Z,106.13
2019-01-23T20:10:30.160Z,104.87
2019-01-23T20:13:01.824Z,110.80
2019-01-23T20:15:36.449Z,106.47
2019-01-23T20:18:10.421Z,97.93
2019-01-23T20:20:39.346Z,102.50
2019-01-23T20:23:12.616Z,98.27
2019-01-23T20:25:43.281Z,111.27
2019-01-23T20:28:12.095Z,101.20
2019-01-23T20:30:46.029Z,99.33
2019-01-23T20:33:14.756Z,94.73
2019-01-23T20:35:46.619Z,97.07
2019-01-23T20:38:21.818Z,103.97
2019-01-23T20:40:53.492Z,99.40
2019-01-23T20:43:30.079Z,89.87
2019-01-23T20:46:01.958Z,105.90
2019-01-23T20:48:35.033Z,99.90
2019-01-23T20:51:05.159Z,110.43
2019-01-23T20:53:34.040Z,92.63
2019-01-23T20:56:03.344Z,96.73
2019-01-23T20:58:35.099Z,106.20
2019-01-23T21:01:04.403Z,106.83
2019-01-23T21:03:35.113Z,111.50
2019-01-23T21:06:05.378Z,103.73
2019-01-23T21:08:34.455Z,110.67
2019-01-23T21:11:04.585Z,96.43
2019-01-23T21:13:33.439Z,101.30
2019-01-23T21:16:03.869Z,98.17
2019-01-23T21:18:36.055Z,102.13
2019-01-23T21:21:05.973Z,98.10
2019-01-23T21:23:39.831Z,105.73
2019-01-23T21:26:08.356Z,103.07
2019-01-23T21:28:37.125Z,115.43
2019-01-23T21:31:07.391Z,121.77
2019-01-23T21:33:42.061Z,116.30
2019-01-23T21:36:10.779Z,107.73
2019-01-23T21:38:41.241Z,111.77
2019-01-23T21:41:10.202Z,98.57
2019-01-23T21:43:40.694Z,110.73
2019-01-23T21:46:11.877Z,108.63
2019-01-23T21:48:44.165Z,105.13
2019-01-23T21:51:13.138Z,107.77
2019-01-23T21:53:42.034Z,109.80
2019-01-23T21:56:11.507Z,112.50
2019-01-23T21:58:42.064Z,108.13
2019-01-23T22:01:13.985Z,113.37
2019-01-23T22:03:49.078Z,118.03
2019-01-23T22:06:13.440Z,121.87
2019-01-23T22:08:42.334Z,121.50
2019-01-23T22:11:11.513Z,104.20
2019-01-23T22:13:40.320Z,127.47
2019-01-23T22:16:10.522Z,107.13
2019-01-23T22:18:39.947Z,128.37
2019-01-23T22:21:09.037Z,129.23
2019-01-23T22:23:41.850Z,114.67
2019-01-23T22:26:10.710Z,120.47
2019-01-23T22:28:42.758Z,113.93
2019-01-23T22:31:11.658Z,118.40
2019-01-23T22:33:40.443Z,112.07
2019-01-23T22:36:09.351Z,111.63
2019-01-23T22:38:39.054Z,115.27
2019-01-23T22:41:07.949Z,118.97
2019-01-23T22:43:36.623Z,111.90
2019-01-23T22:46:05.836Z,117.40
2019-01-23T22:48:35.595Z,109.57
2019-01-23T22:51:04.841Z,120.93
2019-01-23T22:53:33.734Z,128.37
2019-01-23T22:56:02.839Z,115.20
2019-01-23T22:58:31.717Z,125.33
2019-01-23T23:01:12.282Z,128.97
2019-01-23T23:03:41.274Z,129.30
2019-01-23T23:06:14.773Z,123.27
2019-01-23T23:08:43.671Z,120.07
2019-01-23T23:11:15.258Z,119.30
2019-01-23T23:13:48.949Z,124.47
2019-01-23T23:16:17.913Z,117.20
2019-01-23T23:18:46.888Z,120.33
2019-01-23T23:21:15.901Z,118.77
2019-01-23T23:23:44.768Z,127.40
2019-01-23T23:26:13.682Z,117.90
2019-01-23T23:28:45.031Z,121.93
2019-01-23T23:31:13.796Z,126.77
2019-01-23T23:33:42.813Z,120.40
2019-01-23T23:36:11.794Z,127.27
2019-01-23T23:38:43.539Z,130.43
2019-01-23T23:41:13.376Z,128.87
2019-01-23T23:43:43.787Z,130.37
2019-01-23T23:46:12.797Z,128.07
2019-01-23T23:48:41.663Z,141.83
2019-01-23T23:51:10.570Z,132.97
2019-01-23T23:53:39.544Z,122.63
2019-01-23T23:56:08.313Z,146.43
2019-01-23T23:58:37.244Z,127.73
